sensor_id;sensor_type;location;lat;lon;timestamp;pressure;altitude;pressure_sealevel;temperature;humidity
60240;BME280;46102;39.012;-7.064;2023-05-12T00:00:36;98385.88;;;18.93;29.65
60240;BME280;46102;39.012;-7.064;2023-05-12T00:02:37;98390.63;;;18.92;29.73
60240;BME280;46102;39.012;-7.064;2023-05-12T00:04:38;98381.94;;;18.94;29.74
60240;BME280;46102;39.012;-7.064;2023-05-12T00:06:39;98388.28;;;18.95;29.96
60240;BME280;46102;39.012;-7.064;2023-05-12T00:08:40;98383.53;;;18.95;30.16
60240;BME280;46102;39.012;-7.064;2023-05-12T00:10:41;98389.78;;;18.88;30.26
60240;BME280;46102;39.012;-7.064;2023-05-12T00:12:42;98395.31;;;18.85;30.31
60240;BME280;46102;39.012;-7.064;2023-05-12T00:14:43;98385.78;;;18.86;30.39
60240;BME280;46102;39.012;-7.064;2023-05-12T00:16:44;98384.19;;;18.85;30.46
60240;BME280;46102;39.012;-7.064;2023-05-12T00:18:50;98398.03;;;18.81;30.52
60240;BME280;46102;39.012;-7.064;2023-05-12T00:20:51;98399.94;;;18.77;30.70
60240;BME280;46102;39.012;-7.064;2023-05-12T00:22:54;98404.63;;;18.73;30.87
60240;BME280;46102;39.012;-7.064;2023-05-12T00:24:54;98392.72;;;18.72;30.85
60240;BME280;46102;39.012;-7.064;2023-05-12T00:26:55;98391.50;;;18.70;30.88
60240;BME280;46102;39.012;-7.064;2023-05-12T00:28:56;98389.47;;;18.67;30.99
60240;BME280;46102;39.012;-7.064;2023-05-12T00:31:01;98397.75;;;18.63;31.07
60240;BME280;46102;39.012;-7.064;2023-05-12T00:33:03;98401.31;;;18.64;31.27
60240;BME280;46102;39.012;-7.064;2023-05-12T00:35:04;98400.47;;;18.60;31.34
60240;BME280;46102;39.012;-7.064;2023-05-12T00:37:05;98400.34;;;18.52;31.29
60240;BME280;46102;39.012;-7.064;2023-05-12T00:39:06;98400.75;;;18.51;31.53
60240;BME280;46102;39.012;-7.064;2023-05-12T00:41:07;98399.50;;;18.48;31.71
60240;BME280;46102;39.012;-7.064;2023-05-12T00:43:08;98399.41;;;18.41;31.76
60240;BME280;46102;39.012;-7.064;2023-05-12T00:45:09;98397.84;;;18.44;32.02
60240;BME280;46102;39.012;-7.064;2023-05-12T00:47:10;98398.28;;;18.46;32.12
60240;BME280;46102;39.012;-7.064;2023-05-12T00:49:11;98396.16;;;18.36;32.12
60240;BME280;46102;39.012;-7.064;2023-05-12T00:51:14;98390.97;;;18.34;32.25
60240;BME280;46102;39.012;-7.064;2023-05-12T00:53:15;98388.09;;;18.30;32.40
60240;BME280;46102;39.012;-7.064;2023-05-12T00:55:16;98380.84;;;18.22;32.80
60240;BME280;46102;39.012;-7.064;2023-05-12T00:57:18;98375.66;;;18.21;32.84
60240;BME280;46102;39.012;-7.064;2023-05-12T00:59:20;98380.34;;;18.17;33.12
60240;BME280;46102;39.012;-7.064;2023-05-12T01:01:21;98375.94;;;18.12;33.29
60240;BME280;46102;39.012;-7.064;2023-05-12T01:03:26;98376.94;;;18.00;33.37
60240;BME280;46102;39.012;-7.064;2023-05-12T01:05:31;98368.91;;;17.95;33.38
60240;BME280;46102;39.012;-7.064;2023-05-12T01:07:34;98365.28;;;17.91;33.35
60240;BME280;46102;39.012;-7.064;2023-05-12T01:09:36;98378.72;;;17.89;33.62
60240;BME280;46102;39.012;-7.064;2023-05-12T01:11:37;98380.34;;;17.90;33.66
60240;BME280;46102;39.012;-7.064;2023-05-12T01:13:39;98371.59;;;17.88;33.76
60240;BME280;46102;39.012;-7.064;2023-05-12T01:15:45;98375.03;;;17.81;33.72
60240;BME280;46102;39.012;-7.064;2023-05-12T01:17:54;98365.97;;;17.84;33.85
60240;BME280;46102;39.012;-7.064;2023-05-12T01:19:58;98369.16;;;17.86;33.88
60240;BME280;46102;39.012;-7.064;2023-05-12T01:21:59;98367.50;;;17.82;34.02
60240;BME280;46102;39.012;-7.064;2023-05-12T01:24:05;98362.69;;;17.79;34.13
60240;BME280;46102;39.012;-7.064;2023-05-12T01:26:08;98357.91;;;17.79;33.94
60240;BME280;46102;39.012;-7.064;2023-05-12T01:28:11;98367.78;;;17.77;34.15
60240;BME280;46102;39.012;-7.064;2023-05-12T01:30:15;98363.72;;;17.71;34.38
60240;BME280;46102;39.012;-7.064;2023-05-12T01:32:17;98352.53;;;17.67;34.34
60240;BME280;46102;39.012;-7.064;2023-05-12T01:34:19;98352.53;;;17.67;34.29
60240;BME280;46102;39.012;-7.064;2023-05-12T01:36:24;98360.06;;;17.66;34.33
60240;BME280;46102;39.012;-7.064;2023-05-12T01:38:25;98360.50;;;17.68;34.48
60240;BME280;46102;39.012;-7.064;2023-05-12T01:40:26;98352.50;;;17.63;34.50
60240;BME280;46102;39.012;-7.064;2023-05-12T01:42:29;98356.28;;;17.55;34.70
60240;BME280;46102;39.012;-7.064;2023-05-12T01:44:30;98353.09;;;17.53;34.75
60240;BME280;46102;39.012;-7.064;2023-05-12T01:46:31;98344.28;;;17.47;34.81
60240;BME280;46102;39.012;-7.064;2023-05-12T01:48:37;98351.09;;;17.54;34.84
60240;BME280;46102;39.012;-7.064;2023-05-12T01:50:39;98345.56;;;17.54;34.73
60240;BME280;46102;39.012;-7.064;2023-05-12T01:52:46;98333.25;;;17.51;34.95
60240;BME280;46102;39.012;-7.064;2023-05-12T01:54:49;98337.19;;;17.50;34.73
60240;BME280;46102;39.012;-7.064;2023-05-12T01:56:51;98324.34;;;17.42;34.89
60240;BME280;46102;39.012;-7.064;2023-05-12T01:58:52;98330.56;;;17.35;35.04
60240;BME280;46102;39.012;-7.064;2023-05-12T02:00:53;98326.22;;;17.34;35.08
60240;BME280;46102;39.012;-7.064;2023-05-12T02:02:54;98332.13;;;17.33;35.06
60240;BME280;46102;39.012;-7.064;2023-05-12T02:04:56;98329.41;;;17.36;35.13
60240;BME280;46102;39.012;-7.064;2023-05-12T02:06:56;98310.44;;;17.38;35.08
60240;BME280;46102;39.012;-7.064;2023-05-12T02:08:58;98317.94;;;17.38;35.14
60240;BME280;46102;39.012;-7.064;2023-05-12T02:11:05;98319.44;;;17.32;35.16
60240;BME280;46102;39.012;-7.064;2023-05-12T02:13:07;98316.41;;;17.40;34.95
60240;BME280;46102;39.012;-7.064;2023-05-12T02:15:09;98313.59;;;17.37;34.90
60240;BME280;46102;39.012;-7.064;2023-05-12T02:17:13;98315.34;;;17.25;35.22
60240;BME280;46102;39.012;-7.064;2023-05-12T02:19:14;98320.16;;;17.28;35.11
60240;BME280;46102;39.012;-7.064;2023-05-12T02:21:15;98316.00;;;17.19;35.29
60240;BME280;46102;39.012;-7.064;2023-05-12T02:23:15;98314.00;;;17.16;35.15
60240;BME280;46102;39.012;-7.064;2023-05-12T02:25:17;98319.34;;;17.28;35.20
60240;BME280;46102;39.012;-7.064;2023-05-12T02:27:18;98307.75;;;17.22;35.21
60240;BME280;46102;39.012;-7.064;2023-05-12T02:29:19;98317.59;;;17.20;35.52
60240;BME280;46102;39.012;-7.064;2023-05-12T02:31:20;98314.41;;;17.18;35.39
60240;BME280;46102;39.012;-7.064;2023-05-12T02:33:21;98314.56;;;17.05;35.70
60240;BME280;46102;39.012;-7.064;2023-05-12T02:35:22;98319.22;;;17.01;35.71
60240;BME280;46102;39.012;-7.064;2023-05-12T02:37:23;98314.56;;;17.05;35.79
60240;BME280;46102;39.012;-7.064;2023-05-12T02:39:24;98316.47;;;17.01;35.62
60240;BME280;46102;39.012;-7.064;2023-05-12T02:41:26;98318.78;;;16.99;35.91
60240;BME280;46102;39.012;-7.064;2023-05-12T02:43:27;98304.59;;;17.01;35.84
60240;BME280;46102;39.012;-7.064;2023-05-12T02:45:28;98294.16;;;16.94;35.91
60240;BME280;46102;39.012;-7.064;2023-05-12T02:47:29;98284.19;;;16.90;36.35
60240;BME280;46102;39.012;-7.064;2023-05-12T02:49:32;98284.41;;;16.81;36.12
60240;BME280;46102;39.012;-7.064;2023-05-12T02:51:33;98287.34;;;16.72;36.30
60240;BME280;46102;39.012;-7.064;2023-05-12T02:53:34;98288.59;;;16.75;36.13
60240;BME280;46102;39.012;-7.064;2023-05-12T02:55:35;98291.75;;;16.73;36.35
60240;BME280;46102;39.012;-7.064;2023-05-12T02:57:36;98287.97;;;16.81;36.05
60240;BME280;46102;39.012;-7.064;2023-05-12T02:59:37;98285.63;;;16.83;36.07
60240;BME280;46102;39.012;-7.064;2023-05-12T03:01:37;98277.00;;;16.69;36.08
60240;BME280;46102;39.012;-7.064;2023-05-12T03:03:38;98276.22;;;16.69;36.06
60240;BME280;46102;39.012;-7.064;2023-05-12T03:05:39;98268.56;;;16.62;36.35
60240;BME280;46102;39.012;-7.064;2023-05-12T03:07:40;98274.53;;;16.64;36.26
60240;BME280;46102;39.012;-7.064;2023-05-12T03:09:42;98276.44;;;16.60;36.33
60240;BME280;46102;39.012;-7.064;2023-05-12T03:11:42;98276.00;;;16.58;36.55
60240;BME280;46102;39.012;-7.064;2023-05-12T03:13:43;98266.13;;;16.41;36.70
60240;BME280;46102;39.012;-7.064;2023-05-12T03:15:44;98275.25;;;16.41;36.66
60240;BME280;46102;39.012;-7.064;2023-05-12T03:17:45;98275.25;;;16.41;36.56
60240;BME280;46102;39.012;-7.064;2023-05-12T03:19:46;98272.50;;;16.41;36.60
60240;BME280;46102;39.012;-7.064;2023-05-12T03:21:47;98279.81;;;16.34;36.93
60240;BME280;46102;39.012;-7.064;2023-05-12T03:23:47;98286.97;;;16.35;36.70
60240;BME280;46102;39.012;-7.064;2023-05-12T03:25:48;98286.88;;;16.31;36.73
60240;BME280;46102;39.012;-7.064;2023-05-12T03:27:49;98280.16;;;16.32;36.74
60240;BME280;46102;39.012;-7.064;2023-05-12T03:29:50;98288.84;;;16.31;36.69
60240;BME280;46102;39.012;-7.064;2023-05-12T03:31:51;98287.47;;;16.40;36.68
60240;BME280;46102;39.012;-7.064;2023-05-12T03:33:52;98285.72;;;16.32;36.63
60240;BME280;46102;39.012;-7.064;2023-05-12T03:35:53;98291.63;;;16.31;36.51
60240;BME280;46102;39.012;-7.064;2023-05-12T03:37:54;98289.75;;;16.35;36.56
60240;BME280;46102;39.012;-7.064;2023-05-12T03:39:55;98292.88;;;16.33;36.49
60240;BME280;46102;39.012;-7.064;2023-05-12T03:41:56;98283.03;;;16.36;36.66
60240;BME280;46102;39.012;-7.064;2023-05-12T03:43:57;98282.88;;;16.29;36.85
60240;BME280;46102;39.012;-7.064;2023-05-12T03:45:58;98288.56;;;16.36;36.61
60240;BME280;46102;39.012;-7.064;2023-05-12T03:47:59;98279.22;;;16.24;36.83
60240;BME280;46102;39.012;-7.064;2023-05-12T03:50:00;98278.44;;;16.24;36.76
60240;BME280;46102;39.012;-7.064;2023-05-12T03:52:01;98274.56;;;16.29;36.87
60240;BME280;46102;39.012;-7.064;2023-05-12T03:54:02;98272.00;;;16.20;36.91
60240;BME280;46102;39.012;-7.064;2023-05-12T03:56:04;98268.34;;;16.16;37.04
60240;BME280;46102;39.012;-7.064;2023-05-12T03:58:07;98272.41;;;16.02;37.23
60240;BME280;46102;39.012;-7.064;2023-05-12T04:00:08;98271.25;;;16.03;37.20
60240;BME280;46102;39.012;-7.064;2023-05-12T04:02:17;98265.13;;;15.94;37.39
60240;BME280;46102;39.012;-7.064;2023-05-12T04:04:18;98264.22;;;15.90;37.36
60240;BME280;46102;39.012;-7.064;2023-05-12T04:06:19;98268.97;;;15.90;37.43
60240;BME280;46102;39.012;-7.064;2023-05-12T04:08:20;98269.31;;;15.88;37.40
60240;BME280;46102;39.012;-7.064;2023-05-12T04:10:21;98278.50;;;15.92;37.45
60240;BME280;46102;39.012;-7.064;2023-05-12T04:12:22;98278.13;;;15.94;37.19
60240;BME280;46102;39.012;-7.064;2023-05-12T04:14:23;98273.75;;;15.93;37.16
60240;BME280;46102;39.012;-7.064;2023-05-12T04:16:24;98266.59;;;15.92;37.11
60240;BME280;46102;39.012;-7.064;2023-05-12T04:18:25;98266.09;;;15.86;37.21
60240;BME280;46102;39.012;-7.064;2023-05-12T04:20:26;98273.66;;;15.89;37.19
60240;BME280;46102;39.012;-7.064;2023-05-12T04:22:27;98266.44;;;15.85;37.20
60240;BME280;46102;39.012;-7.064;2023-05-12T04:24:28;98265.66;;;15.84;37.37
60240;BME280;46102;39.012;-7.064;2023-05-12T04:26:30;98264.56;;;15.89;37.38
60240;BME280;46102;39.012;-7.064;2023-05-12T04:28:31;98252.72;;;15.88;37.29
60240;BME280;46102;39.012;-7.064;2023-05-12T04:30:32;98253.78;;;15.84;37.38
60240;BME280;46102;39.012;-7.064;2023-05-12T04:32:33;98255.22;;;15.77;37.45
60240;BME280;46102;39.012;-7.064;2023-05-12T04:34:34;98255.50;;;15.72;37.75
60240;BME280;46102;39.012;-7.064;2023-05-12T04:36:35;98255.84;;;15.71;37.61
60240;BME280;46102;39.012;-7.064;2023-05-12T04:38:36;98246.28;;;15.68;37.81
60240;BME280;46102;39.012;-7.064;2023-05-12T04:40:37;98247.88;;;15.69;37.63
60240;BME280;46102;39.012;-7.064;2023-05-12T04:42:38;98249.69;;;15.61;37.85
60240;BME280;46102;39.012;-7.064;2023-05-12T04:44:41;98251.00;;;15.68;37.76
60240;BME280;46102;39.012;-7.064;2023-05-12T04:46:41;98258.63;;;15.71;37.66
60240;BME280;46102;39.012;-7.064;2023-05-12T04:48:43;98253.41;;;15.69;37.74
60240;BME280;46102;39.012;-7.064;2023-05-12T04:50:45;98261.63;;;15.66;37.89
60240;BME280;46102;39.012;-7.064;2023-05-12T04:52:46;98256.09;;;15.66;37.77
60240;BME280;46102;39.012;-7.064;2023-05-12T04:54:47;98252.88;;;15.64;37.80
60240;BME280;46102;39.012;-7.064;2023-05-12T04:56:48;98257.19;;;15.61;37.74
60240;BME280;46102;39.012;-7.064;2023-05-12T04:58:49;98259.84;;;15.57;38.07
60240;BME280;46102;39.012;-7.064;2023-05-12T05:00:50;98250.75;;;15.57;37.90
60240;BME280;46102;39.012;-7.064;2023-05-12T05:02:52;98257.00;;;15.54;38.02
60240;BME280;46102;39.012;-7.064;2023-05-12T05:04:53;98251.19;;;15.43;38.12
60240;BME280;46102;39.012;-7.064;2023-05-12T05:06:57;98252.53;;;15.49;38.19
60240;BME280;46102;39.012;-7.064;2023-05-12T05:08:58;98254.47;;;15.49;37.95
60240;BME280;46102;39.012;-7.064;2023-05-12T05:10:59;98248.88;;;15.45;38.09
60240;BME280;46102;39.012;-7.064;2023-05-12T05:13:02;98253.06;;;15.39;38.24
60240;BME280;46102;39.012;-7.064;2023-05-12T05:15:03;98251.47;;;15.38;38.32
60240;BME280;46102;39.012;-7.064;2023-05-12T05:17:04;98250.47;;;15.46;38.14
60240;BME280;46102;39.012;-7.064;2023-05-12T05:19:08;98258.78;;;15.46;38.03
60240;BME280;46102;39.012;-7.064;2023-05-12T05:21:09;98254.03;;;15.47;38.15
60240;BME280;46102;39.012;-7.064;2023-05-12T05:23:10;98255.56;;;15.44;38.04
60240;BME280;46102;39.012;-7.064;2023-05-12T05:25:11;98251.66;;;15.29;38.53
60240;BME280;46102;39.012;-7.064;2023-05-12T05:27:13;98253.78;;;15.36;38.30
60240;BME280;46102;39.012;-7.064;2023-05-12T05:29:13;98258.06;;;15.33;38.47
60240;BME280;46102;39.012;-7.064;2023-05-12T05:31:15;98260.91;;;15.37;38.37
60240;BME280;46102;39.012;-7.064;2023-05-12T05:33:16;98261.00;;;15.40;38.38
60240;BME280;46102;39.012;-7.064;2023-05-12T05:35:17;98261.25;;;15.35;38.35
60240;BME280;46102;39.012;-7.064;2023-05-12T05:37:21;98261.97;;;15.32;38.60
60240;BME280;46102;39.012;-7.064;2023-05-12T05:39:22;98267.84;;;15.31;38.72
60240;BME280;46102;39.012;-7.064;2023-05-12T05:41:23;98261.63;;;15.18;38.71
60240;BME280;46102;39.012;-7.064;2023-05-12T05:43:24;98259.94;;;15.29;38.68
60240;BME280;46102;39.012;-7.064;2023-05-12T05:45:25;98260.47;;;15.35;38.65
60240;BME280;46102;39.012;-7.064;2023-05-12T05:47:26;98264.03;;;15.35;38.43
60240;BME280;46102;39.012;-7.064;2023-05-12T05:49:28;98259.47;;;15.27;38.46
60240;BME280;46102;39.012;-7.064;2023-05-12T05:51:30;98268.13;;;15.41;38.24
60240;BME280;46102;39.012;-7.064;2023-05-12T05:53:33;98263.41;;;15.42;38.18
60240;BME280;46102;39.012;-7.064;2023-05-12T05:55:34;98266.09;;;15.38;38.21
60240;BME280;46102;39.012;-7.064;2023-05-12T05:57:35;98266.78;;;15.35;38.35
60240;BME280;46102;39.012;-7.064;2023-05-12T05:59:36;98270.91;;;15.41;38.38
60240;BME280;46102;39.012;-7.064;2023-05-12T06:01:38;98276.41;;;15.41;38.35
60240;BME280;46102;39.012;-7.064;2023-05-12T06:03:39;98274.22;;;15.47;38.31
60240;BME280;46102;39.012;-7.064;2023-05-12T06:05:40;98277.78;;;15.48;38.16
60240;BME280;46102;39.012;-7.064;2023-05-12T06:07:42;98278.84;;;15.43;38.32
60240;BME280;46102;39.012;-7.064;2023-05-12T06:09:43;98279.91;;;15.54;38.26
60240;BME280;46102;39.012;-7.064;2023-05-12T06:11:44;98289.81;;;15.55;38.22
60240;BME280;46102;39.012;-7.064;2023-05-12T06:13:44;98292.56;;;15.55;38.24
60240;BME280;46102;39.012;-7.064;2023-05-12T06:15:45;98290.06;;;15.66;37.97
60240;BME280;46102;39.012;-7.064;2023-05-12T06:17:46;98287.75;;;15.68;38.00
60240;BME280;46102;39.012;-7.064;2023-05-12T06:19:47;98287.59;;;15.77;37.94
60240;BME280;46102;39.012;-7.064;2023-05-12T06:21:49;98287.31;;;15.82;37.62
60240;BME280;46102;39.012;-7.064;2023-05-12T06:23:52;98284.81;;;15.93;37.54
60240;BME280;46102;39.012;-7.064;2023-05-12T06:25:55;98287.69;;;15.96;37.67
60240;BME280;46102;39.012;-7.064;2023-05-12T06:27:56;98281.44;;;15.99;37.36
60240;BME280;46102;39.012;-7.064;2023-05-12T06:29:57;98291.06;;;16.06;37.45
60240;BME280;46102;39.012;-7.064;2023-05-12T06:31:57;98289.09;;;16.06;37.26
60240;BME280;46102;39.012;-7.064;2023-05-12T06:33:58;98300.41;;;16.17;37.15
60240;BME280;46102;39.012;-7.064;2023-05-12T06:35:59;98303.25;;;16.20;37.13
60240;BME280;46102;39.012;-7.064;2023-05-12T06:38:00;98304.22;;;16.28;36.92
60240;BME280;46102;39.012;-7.064;2023-05-12T06:40:00;98305.03;;;16.29;37.06
60240;BME280;46102;39.012;-7.064;2023-05-12T06:42:01;98305.72;;;16.41;37.00
60240;BME280;46102;39.012;-7.064;2023-05-12T06:44:11;98295.94;;;16.48;37.00
60240;BME280;46102;39.012;-7.064;2023-05-12T06:46:12;98304.13;;;16.60;36.50
60240;BME280;46102;39.012;-7.064;2023-05-12T06:48:16;98316.78;;;16.61;36.61
60240;BME280;46102;39.012;-7.064;2023-05-12T06:50:17;98316.13;;;16.68;36.53
60240;BME280;46102;39.012;-7.064;2023-05-12T06:52:20;98304.75;;;16.73;36.32
60240;BME280;46102;39.012;-7.064;2023-05-12T06:54:23;98309.03;;;16.86;36.08
60240;BME280;46102;39.012;-7.064;2023-05-12T06:56:24;98306.47;;;16.97;36.00
60240;BME280;46102;39.012;-7.064;2023-05-12T06:58:25;98316.09;;;17.03;35.90
60240;BME280;46102;39.012;-7.064;2023-05-12T07:00:26;98317.41;;;17.09;35.86
60240;BME280;46102;39.012;-7.064;2023-05-12T07:02:28;98313.56;;;17.14;35.69
60240;BME280;46102;39.012;-7.064;2023-05-12T07:04:28;98309.84;;;17.29;35.74
60240;BME280;46102;39.012;-7.064;2023-05-12T07:06:29;98313.78;;;17.47;35.44
60240;BME280;46102;39.012;-7.064;2023-05-12T07:08:31;98315.25;;;17.64;35.13
60240;BME280;46102;39.012;-7.064;2023-05-12T07:10:32;98304.69;;;17.74;35.17
60240;BME280;46102;39.012;-7.064;2023-05-12T07:12:34;98309.66;;;17.84;34.80
60240;BME280;46102;39.012;-7.064;2023-05-12T07:14:35;98306.75;;;18.00;34.62
60240;BME280;46102;39.012;-7.064;2023-05-12T07:16:36;98307.06;;;18.21;34.25
60240;BME280;46102;39.012;-7.064;2023-05-12T07:18:37;98296.88;;;18.29;33.88
60240;BME280;46102;39.012;-7.064;2023-05-12T07:20:38;98301.34;;;18.37;33.87
60240;BME280;46102;39.012;-7.064;2023-05-12T07:22:38;98310.97;;;18.43;33.67
60240;BME280;46102;39.012;-7.064;2023-05-12T07:24:39;98305.56;;;18.54;33.65
60240;BME280;46102;39.012;-7.064;2023-05-12T07:26:41;98307.72;;;18.68;33.29
60240;BME280;46102;39.012;-7.064;2023-05-12T07:28:42;98309.47;;;18.80;33.16
60240;BME280;46102;39.012;-7.064;2023-05-12T07:30:43;98297.72;;;18.90;32.91
60240;BME280;46102;39.012;-7.064;2023-05-12T07:32:44;98295.50;;;19.03;32.57
60240;BME280;46102;39.012;-7.064;2023-05-12T07:34:47;98306.56;;;18.99;32.78
60240;BME280;46102;39.012;-7.064;2023-05-12T07:36:48;98299.97;;;19.14;32.54
60240;BME280;46102;39.012;-7.064;2023-05-12T07:38:49;98308.41;;;19.22;32.39
60240;BME280;46102;39.012;-7.064;2023-05-12T07:40:50;98308.03;;;19.27;32.41
60240;BME280;46102;39.012;-7.064;2023-05-12T07:42:50;98311.00;;;19.45;32.12
60240;BME280;46102;39.012;-7.064;2023-05-12T07:44:52;98306.94;;;19.72;31.93
60240;BME280;46102;39.012;-7.064;2023-05-12T07:46:53;98315.03;;;19.88;31.32
60240;BME280;46102;39.012;-7.064;2023-05-12T07:48:55;98317.88;;;19.95;31.30
60240;BME280;46102;39.012;-7.064;2023-05-12T07:50:56;98319.91;;;20.02;31.23
60240;BME280;46102;39.012;-7.064;2023-05-12T07:52:59;98320.38;;;20.11;30.96
60240;BME280;46102;39.012;-7.064;2023-05-12T07:55:00;98318.88;;;20.25;30.90
60240;BME280;46102;39.012;-7.064;2023-05-12T07:57:01;98320.53;;;20.36;30.79
60240;BME280;46102;39.012;-7.064;2023-05-12T07:59:01;98324.28;;;20.58;30.70
60240;BME280;46102;39.012;-7.064;2023-05-12T08:01:03;98320.41;;;20.85;29.92
60240;BME280;46102;39.012;-7.064;2023-05-12T08:03:06;98316.50;;;20.96;29.36
60240;BME280;46102;39.012;-7.064;2023-05-12T08:05:07;98322.13;;;21.04;29.34
60240;BME280;46102;39.012;-7.064;2023-05-12T08:07:10;98324.53;;;21.16;28.79
60240;BME280;46102;39.012;-7.064;2023-05-12T08:09:11;98327.78;;;21.29;29.12
60240;BME280;46102;39.012;-7.064;2023-05-12T08:11:12;98313.84;;;21.36;28.59
60240;BME280;46102;39.012;-7.064;2023-05-12T08:13:13;98306.25;;;21.36;28.77
60240;BME280;46102;39.012;-7.064;2023-05-12T08:15:13;98313.91;;;21.54;28.63
60240;BME280;46102;39.012;-7.064;2023-05-12T08:17:14;98311.91;;;21.72;28.13
60240;BME280;46102;39.012;-7.064;2023-05-12T08:19:15;98315.91;;;21.86;28.07
60240;BME280;46102;39.012;-7.064;2023-05-12T08:21:18;98299.94;;;22.04;27.85
60240;BME280;46102;39.012;-7.064;2023-05-12T08:23:19;98300.75;;;22.12;27.58
60240;BME280;46102;39.012;-7.064;2023-05-12T08:25:20;98294.00;;;22.27;27.19
60240;BME280;46102;39.012;-7.064;2023-05-12T08:27:21;98299.97;;;22.18;27.28
60240;BME280;46102;39.012;-7.064;2023-05-12T08:29:22;98301.16;;;22.32;27.63
60240;BME280;46102;39.012;-7.064;2023-05-12T08:31:22;98310.69;;;22.52;27.18
60240;BME280;46102;39.012;-7.064;2023-05-12T08:33:24;98309.00;;;22.83;26.51
60240;BME280;46102;39.012;-7.064;2023-05-12T08:35:25;98306.22;;;22.80;26.46
60240;BME280;46102;39.012;-7.064;2023-05-12T08:37:26;98311.81;;;22.80;26.54
60240;BME280;46102;39.012;-7.064;2023-05-12T08:39:27;98307.00;;;22.84;26.61
60240;BME280;46102;39.012;-7.064;2023-05-12T08:43:51;98303.28;;;23.19;25.93
60240;BME280;46102;39.012;-7.064;2023-05-12T08:45:52;98300.03;;;23.28;25.91
60240;BME280;46102;39.012;-7.064;2023-05-12T08:47:57;98299.94;;;23.42;26.10
60240;BME280;46102;39.012;-7.064;2023-05-12T08:50:00;98293.97;;;23.37;26.72
60240;BME280;46102;39.012;-7.064;2023-05-12T08:52:02;98304.31;;;23.47;25.87
60240;BME280;46102;39.012;-7.064;2023-05-12T08:54:03;98298.78;;;23.36;25.99
60240;BME280;46102;39.012;-7.064;2023-05-12T08:56:06;98301.97;;;23.38;25.93
60240;BME280;46102;39.012;-7.064;2023-05-12T08:58:07;98302.69;;;23.53;25.59
60240;BME280;46102;39.012;-7.064;2023-05-12T09:00:10;98302.19;;;23.65;25.42
60240;BME280;46102;39.012;-7.064;2023-05-12T09:02:12;98303.72;;;23.77;25.21
60240;BME280;46102;39.012;-7.064;2023-05-12T09:04:14;98298.09;;;23.81;25.12
60240;BME280;46102;39.012;-7.064;2023-05-12T09:06:15;98296.03;;;23.88;25.05
60240;BME280;46102;39.012;-7.064;2023-05-12T09:08:17;98298.25;;;24.12;24.91
60240;BME280;46102;39.012;-7.064;2023-05-12T09:10:18;98306.94;;;24.24;24.90
60240;BME280;46102;39.012;-7.064;2023-05-12T09:12:22;98295.16;;;24.40;24.29
60240;BME280;46102;39.012;-7.064;2023-05-12T09:14:24;98292.31;;;24.44;24.12
60240;BME280;46102;39.012;-7.064;2023-05-12T09:16:29;98299.50;;;24.52;23.59
60240;BME280;46102;39.012;-7.064;2023-05-12T09:18:51;98301.09;;;24.49;24.21
60240;BME280;46102;39.012;-7.064;2023-05-12T09:20:52;98305.91;;;24.49;24.30
60240;BME280;46102;39.012;-7.064;2023-05-12T09:22:53;98301.38;;;24.62;23.63
60240;BME280;46102;39.012;-7.064;2023-05-12T09:24:55;98306.06;;;24.72;23.28
60240;BME280;46102;39.012;-7.064;2023-05-12T09:26:56;98303.56;;;24.82;23.71
60240;BME280;46102;39.012;-7.064;2023-05-12T09:29:04;98301.13;;;24.84;23.42
60240;BME280;46102;39.012;-7.064;2023-05-12T09:31:20;98300.28;;;24.87;23.37
60240;BME280;46102;39.012;-7.064;2023-05-12T09:33:21;98305.19;;;25.10;23.25
60240;BME280;46102;39.012;-7.064;2023-05-12T09:35:24;98297.91;;;25.20;23.04
60240;BME280;46102;39.012;-7.064;2023-05-12T09:37:30;98296.03;;;25.37;23.02
60240;BME280;46102;39.012;-7.064;2023-05-12T09:39:32;98301.81;;;25.53;22.64
60240;BME280;46102;39.012;-7.064;2023-05-12T09:41:37;98296.19;;;25.80;22.57
60240;BME280;46102;39.012;-7.064;2023-05-12T09:43:44;98301.75;;;25.87;22.53
60240;BME280;46102;39.012;-7.064;2023-05-12T09:45:45;98306.69;;;25.76;22.55
60240;BME280;46102;39.012;-7.064;2023-05-12T09:47:49;98301.34;;;25.85;22.95
60240;BME280;46102;39.012;-7.064;2023-05-12T09:49:51;98298.84;;;25.91;22.78
60240;BME280;46102;39.012;-7.064;2023-05-12T09:51:55;98298.44;;;25.92;22.33
60240;BME280;46102;39.012;-7.064;2023-05-12T09:53:58;98294.38;;;25.93;22.58
60240;BME280;46102;39.012;-7.064;2023-05-12T09:55:59;98298.63;;;26.05;22.72
60240;BME280;46102;39.012;-7.064;2023-05-12T09:58:01;98303.38;;;26.08;22.33
60240;BME280;46102;39.012;-7.064;2023-05-12T10:00:04;98295.63;;;26.16;22.15
60240;BME280;46102;39.012;-7.064;2023-05-12T10:02:08;98297.69;;;26.12;22.28
60240;BME280;46102;39.012;-7.064;2023-05-12T10:04:09;98285.97;;;26.17;22.32
60240;BME280;46102;39.012;-7.064;2023-05-12T10:06:13;98284.59;;;26.25;22.32
60240;BME280;46102;39.012;-7.064;2023-05-12T10:08:31;98278.28;;;26.21;22.08
60240;BME280;46102;39.012;-7.064;2023-05-12T10:10:33;98286.34;;;26.19;22.21
60240;BME280;46102;39.012;-7.064;2023-05-12T10:12:35;98272.84;;;26.54;22.36
60240;BME280;46102;39.012;-7.064;2023-05-12T10:14:36;98284.44;;;26.79;21.44
60240;BME280;46102;39.012;-7.064;2023-05-12T10:16:39;98281.44;;;27.07;21.32
60240;BME280;46102;39.012;-7.064;2023-05-12T10:18:42;98281.78;;;27.29;20.79
60240;BME280;46102;39.012;-7.064;2023-05-12T10:20:44;98274.06;;;27.49;20.57
60240;BME280;46102;39.012;-7.064;2023-05-12T10:22:46;98273.94;;;27.56;20.46
60240;BME280;46102;39.012;-7.064;2023-05-12T10:24:48;98268.22;;;27.76;20.40
60240;BME280;46102;39.012;-7.064;2023-05-12T10:26:50;98269.72;;;27.97;20.44
60240;BME280;46102;39.012;-7.064;2023-05-12T10:28:52;98270.31;;;28.21;20.34
60240;BME280;46102;39.012;-7.064;2023-05-12T10:30:54;98277.00;;;28.28;19.53
60240;BME280;46102;39.012;-7.064;2023-05-12T10:32:56;98280.06;;;28.33;19.53
60240;BME280;46102;39.012;-7.064;2023-05-12T10:35:09;98270.28;;;28.38;19.77
60240;BME280;46102;39.012;-7.064;2023-05-12T10:37:11;98269.94;;;28.36;19.47
60240;BME280;46102;39.012;-7.064;2023-05-12T10:39:13;98273.34;;;28.43;19.34